Time;durP1;ratioP1;P1;durP2;ratioP2;P2;SDS_P1;SDS_P2;PMS_P1;PMS_P2;Temp;Humidity;BMP_temperature;BMP_pressure;BME280_temperature;BME280_humidity;BME280_pressure;Samples;Min_cycle;Max_cycle;Signal;HPM_P1;HPM_P2
2023/03/26 00:01:23;;;;;;;;;;;8.60;91.10;;;;;;5073784;28;20360;-38
2023/03/26 00:03:53;;;;;;;;;;;8.60;91.00;;;;;;5073311;28;19913;-36
2023/03/26 00:06:21;;;;;;;;;;;8.60;91.00;;;;;;5073294;28;19913;-39
2023/03/26 00:08:47;;;;;;;;;;;8.70;91.00;;;;;;5073505;28;20339;-37
2023/03/26 00:11:14;;;;;;;;;;;8.70;91.00;;;;;;5073174;28;19962;-38
2023/03/26 00:13:42;;;;;;;;;;;8.70;91.00;;;;;;5073375;28;20287;-40
2023/03/26 00:16:12;;;;;;;;;;;8.80;91.00;;;;;;5073167;28;20372;-38
2023/03/26 00:18:39;;;;;;;;;;;8.80;90.90;;;;;;5072926;28;19965;-37
2023/03/26 00:21:06;;;;;;;;;;;8.80;90.90;;;;;;5072821;28;20011;-38
2023/03/26 00:23:34;;;;;;;;;;;8.90;90.90;;;;;;5073139;28;19920;-38
2023/03/26 00:26:00;;;;;;;;;;;8.90;90.90;;;;;;5073174;28;19955;-37
2023/03/26 00:28:26;;;;;;;;;;;8.90;90.80;;;;;;5073293;28;19912;-39
2023/03/26 00:30:59;;;;;;;;;;;9.00;90.80;;;;;;5073012;28;20261;-40
2023/03/26 00:33:25;;;;;;;;;;;8.90;90.80;;;;;;5072992;28;19912;-39
2023/03/26 00:35:52;;;;;;;;;;;9.00;90.80;;;;;;5072943;28;19919;-37
2023/03/26 00:38:18;;;;;;;;;;;9.00;90.80;;;;;;5072635;28;20239;-38
2023/03/26 00:40:46;;;;;;;;;;;9.00;90.70;;;;;;5072505;28;19917;-38
2023/03/26 00:43:21;;;;;;;;;;;9.00;90.70;;;;;;5072751;28;19917;-38
2023/03/26 00:45:48;;;;;;;;;;;9.00;90.70;;;;;;5072932;28;20402;-38
2023/03/26 00:48:14;;;;;;;;;;;9.10;90.70;;;;;;5072562;28;19955;-39
2023/03/26 00:50:40;;;;;;;;;;;9.00;90.70;;;;;;5072474;28;19982;-37
2023/03/26 00:53:07;;;;;;;;;;;9.10;90.70;;;;;;5072529;28;19947;-39
2023/03/26 00:55:33;;;;;;;;;;;9.10;90.70;;;;;;5072448;28;19916;-38
2023/03/26 00:57:59;;;;;;;;;;;9.10;90.70;;;;;;5072297;28;20011;-37
2023/03/26 01:00:30;;;;;;;;;;;9.10;90.70;;;;;;5072327;28;20099;-39
2023/03/26 01:02:57;;;;;;;;;;;9.10;90.70;;;;;;5072705;28;20337;-38
2023/03/26 01:05:35;;;;;;;;;;;9.10;90.70;;;;;;5072317;28;19958;-38
2023/03/26 01:08:03;;;;;;;;;;;9.10;90.70;;;;;;5072111;28;19912;-36
2023/03/26 01:10:28;;;;;;;;;;;9.10;90.70;;;;;;5072105;28;19924;-38
2023/03/26 01:12:54;;;;;;;;;;;9.10;90.70;;;;;;5072501;28;19913;-38
2023/03/26 01:15:20;;;;;;;;;;;9.00;90.70;;;;;;5072607;28;19995;-38
2023/03/26 01:17:50;;;;;;;;;;;9.10;90.90;;;;;;5072545;28;19920;-39
2023/03/26 01:20:18;;;;;;;;;;;9.10;90.70;;;;;;5072065;28;19920;-38
2023/03/26 01:22:46;;;;;;;;;;;9.10;90.70;;;;;;5072180;28;19923;-38
2023/03/26 01:25:11;;;;;;;;;;;9.10;90.70;;;;;;5072090;28;20007;-38
2023/03/26 01:27:41;;;;;;;;;;;9.10;90.70;;;;;;5072261;28;19919;-38
2023/03/26 01:30:21;;;;;;;;;;;9.10;90.60;;;;;;5072385;28;19912;-38
2023/03/26 01:33:12;;;;;;;;;;;9.10;90.70;;;;;;5072174;28;20011;-39
2023/03/26 01:35:44;;;;;;;;;;;9.20;90.70;;;;;;5070864;28;19935;-37
2023/03/26 01:38:29;;;;;;;;;;;9.20;90.60;;;;;;5071768;28;19912;-38
2023/03/26 01:40:59;;;;;;;;;;;9.20;90.60;;;;;;5071935;28;20355;-37
2023/03/26 01:43:35;;;;;;;;;;;9.20;90.60;;;;;;5071950;28;19979;-39
2023/03/26 01:46:04;;;;;;;;;;;9.20;90.60;;;;;;5072111;28;19912;-38
2023/03/26 01:48:35;;;;;;;;;;;9.30;90.60;;;;;;5071796;28;19912;-38
2023/03/26 01:51:01;;;;;;;;;;;9.30;90.60;;;;;;5072089;28;20011;-39
2023/03/26 01:53:27;;;;;;;;;;;9.30;90.60;;;;;;5071740;28;20414;-37
2023/03/26 01:56:11;;;;;;;;;;;9.30;90.60;;;;;;5072101;28;19912;-37
2023/03/26 01:58:43;;;;;;;;;;;9.30;90.60;;;;;;5072119;28;19920;-36
2023/03/26 02:01:29;;;;;;;;;;;9.30;90.60;;;;;;5071675;28;20295;-35
2023/03/26 02:04:13;;;;;;;;;;;9.30;90.60;;;;;;5071611;28;20296;-37
2023/03/26 02:06:46;;;;;;;;;;;9.30;90.60;;;;;;5071462;28;20038;-37
2023/03/26 02:09:17;;;;;;;;;;;9.30;90.50;;;;;;5071385;28;20003;-35
2023/03/26 02:11:43;;;;;;;;;;;9.30;90.50;;;;;;5071903;28;19912;-37
2023/03/26 02:14:09;;;;;;;;;;;9.40;90.50;;;;;;5071574;28;20283;-36
2023/03/26 02:16:35;;;;;;;;;;;9.30;90.60;;;;;;5071532;28;19909;-39
2023/03/26 02:19:00;;;;;;;;;;;9.40;90.50;;;;;;5073066;28;19965;-37
2023/03/26 02:21:26;;;;;;;;;;;9.40;90.50;;;;;;5075211;28;19977;-37
2023/03/26 02:24:02;;;;;;;;;;;9.40;90.50;;;;;;5075566;28;19935;-37
2023/03/26 02:26:29;;;;;;;;;;;9.40;90.50;;;;;;5075464;28;19908;-40
2023/03/26 02:28:55;;;;;;;;;;;9.40;90.50;;;;;;5075481;28;19932;-39
2023/03/26 02:31:21;;;;;;;;;;;9.40;90.60;;;;;;5075369;28;19909;-37
2023/03/26 02:33:48;;;;;;;;;;;9.40;90.60;;;;;;5075080;28;19939;-40
2023/03/26 02:36:14;;;;;;;;;;;9.40;90.50;;;;;;5074993;28;19948;-37
2023/03/26 02:38:40;;;;;;;;;;;9.40;90.60;;;;;;5073742;28;19915;-38
2023/03/26 02:41:06;;;;;;;;;;;9.40;90.60;;;;;;5075230;28;20367;-38
2023/03/26 02:43:31;;;;;;;;;;;9.40;90.60;;;;;;5074853;28;19999;-36
2023/03/26 02:45:57;;;;;;;;;;;9.40;90.60;;;;;;5074920;28;20295;-39
2023/03/26 02:48:22;;;;;;;;;;;9.40;90.50;;;;;;5075172;28;19915;-36
2023/03/26 02:50:49;;;;;;;;;;;9.40;90.50;;;;;;5073418;28;20056;-37
2023/03/26 02:53:15;;;;;;;;;;;9.40;90.50;;;;;;5075087;28;19909;-38
2023/03/26 02:55:40;;;;;;;;;;;9.40;90.50;;;;;;5074633;28;20242;-37
2023/03/26 02:58:06;;;;;;;;;;;9.40;90.50;;;;;;5074773;28;19973;-39
2023/03/26 03:00:32;;;;;;;;;;;9.40;90.50;;;;;;5074384;28;19919;-37
2023/03/26 03:02:58;;;;;;;;;;;9.40;90.50;;;;;;5074889;28;19908;-36
2023/03/26 03:05:27;;;;;;;;;;;9.40;90.50;;;;;;5074518;28;20367;-36
2023/03/26 03:07:56;;;;;;;;;;;9.50;90.50;;;;;;5074510;28;19909;-36
2023/03/26 03:10:22;;;;;;;;;;;9.50;90.50;;;;;;5074616;28;19908;-37
2023/03/26 03:12:48;;;;;;;;;;;9.50;90.50;;;;;;5074363;28;19909;-37
2023/03/26 03:15:13;;;;;;;;;;;9.50;90.50;;;;;;5074600;28;19908;-37
2023/03/26 03:17:40;;;;;;;;;;;9.50;90.50;;;;;;5074374;28;20020;-38
2023/03/26 03:20:08;;;;;;;;;;;9.50;90.50;;;;;;5074435;28;20425;-38
2023/03/26 03:22:35;;;;;;;;;;;9.50;90.50;;;;;;5074268;28;19908;-38
2023/03/26 03:25:00;;;;;;;;;;;9.50;90.50;;;;;;5074454;28;19954;-38
2023/03/26 03:27:26;;;;;;;;;;;9.40;90.50;;;;;;5074217;28;19908;-36
2023/03/26 03:29:55;;;;;;;;;;;9.50;90.50;;;;;;5073858;28;19924;-35
2023/03/26 03:32:21;;;;;;;;;;;9.50;90.50;;;;;;5073980;28;19915;-38
2023/03/26 03:34:48;;;;;;;;;;;9.40;90.50;;;;;;5074266;28;19912;-38
2023/03/26 03:37:14;;;;;;;;;;;9.40;90.50;;;;;;5074046;28;20361;-37
2023/03/26 03:39:39;;;;;;;;;;;9.40;90.50;;;;;;5073855;28;19909;-37
2023/03/26 03:42:05;;;;;;;;;;;9.40;90.50;;;;;;5073814;28;19995;-38
2023/03/26 03:44:30;;;;;;;;;;;9.40;90.50;;;;;;5073978;28;19989;-37
2023/03/26 03:46:55;;;;;;;;;;;9.50;90.50;;;;;;5074062;28;20379;-39
2023/03/26 03:49:21;;;;;;;;;;;9.40;90.50;;;;;;5073616;28;19923;-36
2023/03/26 03:51:47;;;;;;;;;;;9.50;90.50;;;;;;5073806;28;19962;-39
2023/03/26 03:54:13;;;;;;;;;;;9.50;90.50;;;;;;5073497;28;20306;-37
2023/03/26 03:56:38;;;;;;;;;;;9.50;90.50;;;;;;5073771;28;19999;-44
2023/03/26 03:59:04;;;;;;;;;;;9.50;90.50;;;;;;5073326;28;19915;-37
2023/03/26 04:01:30;;;;;;;;;;;9.50;90.50;;;;;;5073356;28;19920;-45
2023/03/26 04:03:57;;;;;;;;;;;9.50;90.50;;;;;;5072349;28;19930;-38
2023/03/26 04:06:24;;;;;;;;;;;9.40;90.40;;;;;;5073466;28;20326;-38
2023/03/26 04:08:52;;;;;;;;;;;9.50;90.50;;;;;;5073187;28;20364;-37
2023/03/26 04:11:17;;;;;;;;;;;9.40;90.40;;;;;;5073220;28;19913;-39
2023/03/26 04:13:43;;;;;;;;;;;9.50;90.50;;;;;;5073277;28;19991;-37
2023/03/26 04:16:09;;;;;;;;;;;9.40;90.50;;;;;;5073262;28;19969;-38
2023/03/26 04:18:36;;;;;;;;;;;9.50;90.50;;;;;;5073159;28;19908;-38
2023/03/26 04:21:04;;;;;;;;;;;9.50;90.50;;;;;;5072792;28;19920;-36
2023/03/26 04:23:30;;;;;;;;;;;9.50;90.50;;;;;;5073091;28;19908;-37
2023/03/26 04:25:56;;;;;;;;;;;9.50;90.40;;;;;;5072886;28;19909;-39
2023/03/26 04:28:48;;;;;;;;;;;9.50;90.40;;;;;;5073238;28;19931;-37
2023/03/26 04:31:15;;;;;;;;;;;9.50;90.40;;;;;;5072490;28;20279;-47
2023/03/26 04:33:45;;;;;;;;;;;9.50;90.40;;;;;;5072681;28;19995;-35
2023/03/26 04:36:10;;;;;;;;;;;9.50;90.40;;;;;;5072706;28;20002;-39
2023/03/26 04:38:40;;;;;;;;;;;9.50;90.40;;;;;;5073015;28;19951;-39
2023/03/26 04:41:06;;;;;;;;;;;9.50;90.40;;;;;;5072333;28;20328;-39
2023/03/26 04:43:34;;;;;;;;;;;9.50;90.40;;;;;;5072395;28;19996;-37
2023/03/26 04:46:02;;;;;;;;;;;9.50;90.40;;;;;;5072899;28;20337;-35
2023/03/26 04:48:29;;;;;;;;;;;9.60;90.40;;;;;;5072595;28;19913;-39
2023/03/26 04:50:54;;;;;;;;;;;9.50;90.40;;;;;;5072887;28;19909;-37
2023/03/26 04:53:20;;;;;;;;;;;9.50;90.40;;;;;;5072541;28;20390;-39
2023/03/26 04:55:57;;;;;;;;;;;9.50;90.40;;;;;;5072424;28;19916;-38
2023/03/26 04:58:29;;;;;;;;;;;9.50;90.40;;;;;;5072443;28;19909;-36
2023/03/26 05:00:54;;;;;;;;;;;9.60;90.40;;;;;;5072558;28;20324;-38
2023/03/26 05:03:20;;;;;;;;;;;9.50;90.40;;;;;;5070954;28;19919;-39
2023/03/26 05:05:45;;;;;;;;;;;9.50;90.30;;;;;;5072219;28;20275;-39
2023/03/26 05:08:11;;;;;;;;;;;9.60;90.30;;;;;;5072770;28;19958;-37
2023/03/26 05:10:36;;;;;;;;;;;9.50;90.30;;;;;;5072269;28;19914;-39
2023/03/26 05:13:02;;;;;;;;;;;9.60;90.40;;;;;;5072635;28;19913;-36
2023/03/26 05:15:27;;;;;;;;;;;9.60;90.40;;;;;;5072150;28;19908;-43
2023/03/26 05:17:54;;;;;;;;;;;9.60;90.40;;;;;;5072351;28;20420;-36
2023/03/26 05:20:19;;;;;;;;;;;9.50;90.30;;;;;;5072076;28;20359;-37
2023/03/26 05:22:45;;;;;;;;;;;9.50;90.30;;;;;;5072151;28;19924;-44
2023/03/26 05:25:11;;;;;;;;;;;9.50;90.30;;;;;;5072124;28;19912;-37
2023/03/26 05:27:36;;;;;;;;;;;9.60;90.40;;;;;;5072421;28;19919;-39
2023/03/26 05:30:03;;;;;;;;;;;9.50;90.30;;;;;;5072370;28;20288;-36
2023/03/26 05:32:29;;;;;;;;;;;9.60;90.40;;;;;;5072488;28;20021;-39
2023/03/26 05:34:55;;;;;;;;;;;9.60;90.40;;;;;;5072350;28;19970;-39
2023/03/26 05:37:23;;;;;;;;;;;9.60;90.30;;;;;;5072259;28;19920;-38
2023/03/26 05:39:53;;;;;;;;;;;9.60;90.30;;;;;;5072244;28;20008;-39
2023/03/26 05:42:18;;;;;;;;;;;9.60;90.30;;;;;;5071945;28;19920;-39
2023/03/26 05:44:44;;;;;;;;;;;9.60;90.30;;;;;;5072256;28;20280;-35
2023/03/26 05:47:09;;;;;;;;;;;9.60;90.30;;;;;;5072081;28;20028;-39
2023/03/26 05:49:35;;;;;;;;;;;9.60;90.30;;;;;;5071809;28;19912;-42
2023/03/26 05:52:00;;;;;;;;;;;9.60;90.30;;;;;;5071894;28;19913;-41
2023/03/26 05:54:26;;;;;;;;;;;9.60;90.30;;;;;;5075974;28;20316;-40
2023/03/26 05:56:51;;;;;;;;;;;9.70;90.30;;;;;;5076273;28;20231;-37
2023/03/26 05:59:17;;;;;;;;;;;9.70;90.30;;;;;;5075960;28;19917;-40
2023/03/26 06:01:43;;;;;;;;;;;9.60;90.20;;;;;;5075696;28;19916;-38
2023/03/26 06:04:14;;;;;;;;;;;9.70;90.30;;;;;;5075915;28;19920;-41
2023/03/26 06:06:40;;;;;;;;;;;9.70;90.30;;;;;;5074517;28;19912;-51
2023/03/26 06:09:05;;;;;;;;;;;9.60;90.20;;;;;;5075585;28;19935;-39
2023/03/26 06:11:31;;;;;;;;;;;9.60;90.20;;;;;;5075884;28;20040;-39
2023/03/26 06:13:56;;;;;;;;;;;9.60;90.20;;;;;;5075707;28;20272;-40
2023/03/26 06:16:22;;;;;;;;;;;9.60;90.20;;;;;;5075845;28;19912;-39
2023/03/26 06:18:50;;;;;;;;;;;9.60;90.20;;;;;;5075924;28;19951;-39
2023/03/26 06:21:16;;;;;;;;;;;9.60;90.20;;;;;;5075227;28;19920;-39
2023/03/26 06:23:42;;;;;;;;;;;9.60;90.20;;;;;;5075243;28;19919;-39
2023/03/26 06:26:07;;;;;;;;;;;9.60;90.20;;;;;;5075349;28;19955;-27
2023/03/26 06:28:33;;;;;;;;;;;9.60;90.30;;;;;;5075102;28;19913;-26
2023/03/26 06:31:00;;;;;;;;;;;9.60;90.30;;;;;;5075075;28;19939;-39
2023/03/26 06:33:25;;;;;;;;;;;9.70;90.30;;;;;;5075053;28;19912;-36
2023/03/26 06:35:51;;;;;;;;;;;9.70;90.20;;;;;;5074956;28;20241;-30
2023/03/26 06:38:16;;;;;;;;;;;9.60;90.20;;;;;;5074950;28;19917;-38
2023/03/26 06:40:42;;;;;;;;;;;9.70;90.30;;;;;;5075162;28;19920;-32
2023/03/26 06:43:07;;;;;;;;;;;9.70;90.20;;;;;;5074900;28;19917;-27
2023/03/26 06:45:33;;;;;;;;;;;9.60;90.20;;;;;;5074774;28;19912;-29
2023/03/26 06:47:59;;;;;;;;;;;9.60;90.20;;;;;;5075074;28;19912;-26
2023/03/26 06:50:25;;;;;;;;;;;9.60;90.20;;;;;;5073358;28;19913;-26
2023/03/26 06:52:53;;;;;;;;;;;9.60;90.20;;;;;;5074663;28;19919;-30
2023/03/26 06:55:19;;;;;;;;;;;9.70;90.20;;;;;;5074633;28;19912;-29
2023/03/26 06:57:51;;;;;;;;;;;9.70;90.20;;;;;;5074855;28;19912;-27
2023/03/26 07:00:17;;;;;;;;;;;9.70;90.20;;;;;;5074667;28;20292;-29
2023/03/26 07:02:43;;;;;;;;;;;9.70;90.20;;;;;;5074570;28;19920;-28
2023/03/26 07:05:09;;;;;;;;;;;9.70;90.20;;;;;;5073649;28;19912;-31
2023/03/26 07:07:34;;;;;;;;;;;9.60;90.20;;;;;;5074428;28;20291;-27
2023/03/26 07:10:00;;;;;;;;;;;9.70;90.20;;;;;;5074334;28;20272;-34
2023/03/26 07:12:25;;;;;;;;;;;9.70;90.20;;;;;;5074375;28;20033;-39
2023/03/26 07:14:51;;;;;;;;;;;9.70;90.20;;;;;;5074060;28;19936;-28
2023/03/26 07:17:17;;;;;;;;;;;9.70;90.20;;;;;;5074208;28;20372;-27
2023/03/26 07:19:42;;;;;;;;;;;9.70;90.20;;;;;;5074176;28;20383;-33
2023/03/26 07:22:34;;;;;;;;;;;9.70;90.20;;;;;;5073926;28;19928;-27
2023/03/26 07:25:00;;;;;;;;;;;9.70;90.20;;;;;;5073854;28;19942;-30
2023/03/26 07:27:34;;;;;;;;;;;9.80;90.20;;;;;;5073967;28;20365;-27
2023/03/26 07:30:03;;;;;;;;;;;9.80;90.20;;;;;;5074032;28;19952;-28
2023/03/26 07:32:37;;;;;;;;;;;9.80;90.10;;;;;;5073842;28;19962;-40
2023/03/26 07:35:16;;;;;;;;;;;9.80;90.10;;;;;;5073962;28;20010;-29
2023/03/26 07:37:53;;;;;;;;;;;9.80;90.20;;;;;;5073774;28;19920;-33
2023/03/26 07:40:39;;;;;;;;;;;9.80;90.10;;;;;;5073627;28;19973;-28
2023/03/26 07:43:13;;;;;;;;;;;9.90;90.10;;;;;;5073331;28;19912;-27
2023/03/26 07:45:40;;;;;;;;;;;9.90;90.10;;;;;;5073618;28;19913;-28
2023/03/26 07:48:15;;;;;;;;;;;9.80;90.10;;;;;;5073587;28;20322;-28
2023/03/26 07:50:41;;;;;;;;;;;9.90;90.10;;;;;;5073576;28;20364;-33
2023/03/26 07:53:07;;;;;;;;;;;9.80;90.10;;;;;;5073807;28;19922;-28
2023/03/26 07:55:33;;;;;;;;;;;9.90;90.10;;;;;;5073489;28;19955;-29
2023/03/26 07:58:17;;;;;;;;;;;9.90;90.10;;;;;;5073986;28;19920;-28
2023/03/26 08:00:47;;;;;;;;;;;9.90;90.10;;;;;;5073340;28;19922;-29
2023/03/26 08:03:21;;;;;;;;;;;10.00;90.10;;;;;;5073448;28;20417;-35
2023/03/26 08:05:50;;;;;;;;;;;9.90;90.10;;;;;;5073374;28;20445;-28
2023/03/26 08:08:42;;;;;;;;;;;10.00;90.10;;;;;;5073614;28;20010;-27
2023/03/26 08:11:19;;;;;;;;;;;10.00;90.10;;;;;;5073205;28;19970;-32
2023/03/26 08:14:03;;;;;;;;;;;10.00;90.00;;;;;;5073307;28;19919;-28
2023/03/26 08:16:47;;;;;;;;;;;10.00;90.10;;;;;;5073138;28;19970;-27
2023/03/26 08:19:31;;;;;;;;;;;10.00;90.00;;;;;;5072959;28;19913;-30
2023/03/26 08:22:12;;;;;;;;;;;10.00;90.10;;;;;;5072689;28;19924;-30
2023/03/26 08:24:54;;;;;;;;;;;10.00;90.00;;;;;;5073227;28;19919;-30
2023/03/26 08:27:20;;;;;;;;;;;10.00;90.00;;;;;;5072873;28;20380;-25
2023/03/26 08:29:48;;;;;;;;;;;10.00;90.00;;;;;;5072851;28;19912;-32
2023/03/26 08:32:15;;;;;;;;;;;10.00;90.00;;;;;;5072802;28;20314;-29
2023/03/26 08:34:41;;;;;;;;;;;10.00;90.00;;;;;;5072745;28;20006;-28
2023/03/26 08:37:08;;;;;;;;;;;10.00;90.00;;;;;;5072723;28;20387;-28
2023/03/26 08:39:35;;;;;;;;;;;10.00;90.00;;;;;;5072591;28;20398;-38
2023/03/26 08:42:09;;;;;;;;;;;10.00;90.00;;;;;;5072641;28;20221;-29
2023/03/26 08:44:53;;;;;;;;;;;10.00;90.00;;;;;;5072405;28;19913;-30
2023/03/26 08:47:33;;;;;;;;;;;10.00;90.00;;;;;;5072280;28;19992;-27
2023/03/26 08:50:02;;;;;;;;;;;10.00;90.00;;;;;;5072537;28;19919;-29
2023/03/26 08:52:46;;;;;;;;;;;10.00;90.00;;;;;;5072321;28;19913;-34
2023/03/26 08:55:36;;;;;;;;;;;10.00;90.00;;;;;;5072409;28;20288;-30
2023/03/26 08:58:20;;;;;;;;;;;10.10;90.00;;;;;;5072301;28;19936;-29
2023/03/26 09:00:49;;;;;;;;;;;10.10;90.00;;;;;;5072196;28;19917;-28
2023/03/26 09:03:20;;;;;;;;;;;10.10;90.00;;;;;;5072233;28;19967;-28
2023/03/26 09:06:05;;;;;;;;;;;10.00;89.90;;;;;;5072336;28;19935;-29
2023/03/26 09:08:34;;;;;;;;;;;10.00;90.20;;;;;;5072220;28;19918;-33
2023/03/26 09:11:02;;;;;;;;;;;10.00;90.00;;;;;;5072458;28;20366;-26
2023/03/26 09:13:46;;;;;;;;;;;10.00;90.00;;;;;;5072148;28;19965;-27
2023/03/26 09:16:30;;;;;;;;;;;9.90;90.00;;;;;;5072367;28;19965;-27
2023/03/26 09:19:09;;;;;;;;;;;9.80;90.10;;;;;;5072313;28;19912;-28
2023/03/26 09:22:00;;;;;;;;;;;9.80;90.10;;;;;;5071872;28;19928;-32
2023/03/26 09:24:53;;;;;;;;;;;9.80;90.10;;;;;;5072205;28;19912;-29
2023/03/26 09:27:25;;;;;;;;;;;9.80;90.10;;;;;;5071603;28;19935;-36
2023/03/26 09:30:09;;;;;;;;;;;9.80;90.10;;;;;;5071855;28;19912;-26
2023/03/26 09:32:37;;;;;;;;;;;9.80;90.10;;;;;;5071716;28;19919;-28
2023/03/26 09:35:13;;;;;;;;;;;9.80;90.10;;;;;;5071707;28;19913;-27
2023/03/26 09:37:57;;;;;;;;;;;9.80;90.10;;;;;;5071621;28;20395;-27
2023/03/26 09:40:42;;;;;;;;;;;9.80;90.10;;;;;;5071818;28;20073;-27
2023/03/26 09:43:27;;;;;;;;;;;9.80;90.10;;;;;;5071876;28;19919;-29
2023/03/26 09:46:10;;;;;;;;;;;9.70;90.10;;;;;;5071652;28;19919;-39
2023/03/26 09:48:36;;;;;;;;;;;9.70;90.10;;;;;;5071894;28;19958;-28
2023/03/26 09:51:04;;;;;;;;;;;9.70;90.10;;;;;;5071704;28;19912;-37
2023/03/26 09:53:30;;;;;;;;;;;9.70;90.20;;;;;;5071851;28;19913;-26
2023/03/26 09:56:16;;;;;;;;;;;9.70;90.20;;;;;;5071542;28;20003;-28
2023/03/26 09:58:47;;;;;;;;;;;9.70;90.10;;;;;;5070401;28;20463;-29
2023/03/26 10:01:19;;;;;;;;;;;9.70;90.10;;;;;;5071541;28;19965;-35
2023/03/26 10:04:04;;;;;;;;;;;9.80;90.20;;;;;;5072006;28;19944;-36
2023/03/26 10:06:33;;;;;;;;;;;9.80;90.10;;;;;;5070887;28;19912;-26
2023/03/26 10:09:12;;;;;;;;;;;9.90;90.20;;;;;;5071536;28;19920;-26
2023/03/26 10:11:37;;;;;;;;;;;9.90;90.10;;;;;;5071483;28;19912;-26
2023/03/26 10:14:07;;;;;;;;;;;10.00;90.10;;;;;;5071679;28;19978;-28
2023/03/26 10:16:39;;;;;;;;;;;10.10;90.10;;;;;;5071450;28;20343;-26
2023/03/26 10:19:20;;;;;;;;;;;10.10;90.00;;;;;;5070049;28;19913;-28
2023/03/26 10:21:46;;;;;;;;;;;10.10;90.00;;;;;;5071326;28;19927;-26
2023/03/26 10:24:11;;;;;;;;;;;10.20;90.00;;;;;;5068126;28;19984;-26
2023/03/26 10:26:55;;;;;;;;;;;10.20;89.90;;;;;;5070938;28;19912;-29
2023/03/26 10:29:21;;;;;;;;;;;10.20;89.90;;;;;;5071513;28;19913;-26
2023/03/26 10:31:51;;;;;;;;;;;10.30;89.90;;;;;;5071364;28;19916;-32
2023/03/26 10:34:34;;;;;;;;;;;10.30;89.90;;;;;;5071195;28;19935;-34
2023/03/26 10:37:00;;;;;;;;;;;10.30;89.90;;;;;;5071191;28;19912;-32
2023/03/26 10:39:46;;;;;;;;;;;10.40;89.80;;;;;;5071629;28;19919;-29
2023/03/26 10:42:21;;;;;;;;;;;10.40;89.80;;;;;;5074576;28;20011;-31
2023/03/26 10:45:06;;;;;;;;;;;10.40;89.70;;;;;;5074900;28;20329;-40
2023/03/26 10:47:47;;;;;;;;;;;10.40;89.70;;;;;;5074731;28;19966;-27
2023/03/26 10:50:24;;;;;;;;;;;10.40;89.70;;;;;;5074839;28;19959;-30
2023/03/26 10:52:52;;;;;;;;;;;10.50;89.70;;;;;;5074971;28;19920;-27
2023/03/26 10:55:27;;;;;;;;;;;10.40;89.70;;;;;;5074944;28;19950;-30
2023/03/26 10:58:09;;;;;;;;;;;10.40;89.80;;;;;;5074690;28;19958;-32
2023/03/26 11:00:38;;;;;;;;;;;10.30;89.70;;;;;;5074444;28;19978;-36
2023/03/26 11:03:03;;;;;;;;;;;10.20;90.00;;;;;;5074642;28;19967;-27
2023/03/26 11:05:44;;;;;;;;;;;10.10;90.00;;;;;;5074303;28;20364;-29
2023/03/26 11:08:28;;;;;;;;;;;10.00;90.00;;;;;;5074632;28;20295;-27
2023/03/26 11:10:54;;;;;;;;;;;9.90;90.10;;;;;;5074818;28;19912;-28
2023/03/26 11:13:37;;;;;;;;;;;9.90;90.30;;;;;;5074650;28;19912;-33
2023/03/26 11:16:20;;;;;;;;;;;9.90;90.30;;;;;;5074531;28;19919;-31
2023/03/26 11:18:57;;;;;;;;;;;9.90;90.40;;;;;;5074736;28;20252;-29
2023/03/26 11:21:32;;;;;;;;;;;9.90;90.40;;;;;;5074142;28;19943;-30
2023/03/26 11:24:16;;;;;;;;;;;9.90;90.30;;;;;;5074222;28;19961;-28
2023/03/26 11:26:44;;;;;;;;;;;9.90;90.40;;;;;;5074171;28;19948;-29
2023/03/26 11:29:20;;;;;;;;;;;9.90;90.30;;;;;;5074329;28;19913;-29
2023/03/26 11:31:55;;;;;;;;;;;9.90;90.30;;;;;;5074363;28;19920;-28
2023/03/26 11:34:25;;;;;;;;;;;10.00;90.40;;;;;;5073998;28;20050;-26
2023/03/26 11:36:53;;;;;;;;;;;10.00;90.30;;;;;;5074038;28;20373;-28
2023/03/26 11:39:25;;;;;;;;;;;10.00;90.30;;;;;;5074186;28;19912;-32
2023/03/26 11:41:54;;;;;;;;;;;9.90;90.30;;;;;;5073849;28;19917;-31
2023/03/26 11:44:23;;;;;;;;;;;9.80;90.40;;;;;;5074112;28;19913;-29
2023/03/26 11:46:51;;;;;;;;;;;9.70;90.50;;;;;;5073985;28;19912;-29
2023/03/26 11:49:18;;;;;;;;;;;9.60;90.60;;;;;;5074133;28;19912;-28
2023/03/26 11:51:46;;;;;;;;;;;9.50;90.60;;;;;;5073766;28;19916;-33
2023/03/26 11:54:12;;;;;;;;;;;9.50;90.70;;;;;;5073940;28;19998;-32
2023/03/26 11:56:43;;;;;;;;;;;9.40;90.70;;;;;;5073782;28;20335;-27
2023/03/26 11:59:11;;;;;;;;;;;9.40;90.70;;;;;;5073503;28;19978;-30
2023/03/26 12:01:42;;;;;;;;;;;9.40;90.80;;;;;;5073399;28;19974;-30
2023/03/26 12:04:12;;;;;;;;;;;9.40;90.90;;;;;;5073730;28;20375;-39
2023/03/26 12:06:38;;;;;;;;;;;9.30;90.90;;;;;;5073305;28;19916;-32
2023/03/26 12:09:15;;;;;;;;;;;9.30;90.80;;;;;;5073573;28;19924;-27
2023/03/26 12:11:40;;;;;;;;;;;9.20;90.80;;;;;;5073552;28;19947;-28
2023/03/26 12:14:06;;;;;;;;;;;9.30;90.90;;;;;;5071900;28;19966;-35
2023/03/26 12:16:33;;;;;;;;;;;9.30;90.90;;;;;;5073399;28;19946;-27
2023/03/26 12:19:16;;;;;;;;;;;9.30;90.90;;;;;;5073143;28;19912;-31
2023/03/26 12:21:46;;;;;;;;;;;9.20;90.80;;;;;;5072879;28;19920;-28
2023/03/26 12:24:36;;;;;;;;;;;9.20;90.80;;;;;;5072999;28;19913;-35
2023/03/26 12:27:19;;;;;;;;;;;9.10;90.80;;;;;;5068636;28;19954;-44
2023/03/26 12:29:49;;;;;;;;;;;9.20;90.90;;;;;;5073013;28;19919;-38
2023/03/26 12:32:15;;;;;;;;;;;9.20;90.80;;;;;;5072781;28;19913;-28
2023/03/26 12:34:40;;;;;;;;;;;9.20;90.80;;;;;;5073115;28;19916;-33
2023/03/26 12:37:07;;;;;;;;;;;9.30;90.80;;;;;;5072756;28;19920;-28
2023/03/26 12:39:35;;;;;;;;;;;9.30;90.70;;;;;;5073177;28;19919;-29
2023/03/26 12:42:01;;;;;;;;;;;9.30;90.60;;;;;;5072824;28;19920;-28
2023/03/26 12:44:32;;;;;;;;;;;9.30;90.60;;;;;;5071527;28;20395;-30
2023/03/26 12:47:18;;;;;;;;;;;9.30;90.60;;;;;;5072525;28;19919;-30
2023/03/26 12:49:44;;;;;;;;;;;9.30;90.60;;;;;;5072783;28;19931;-30
2023/03/26 12:52:20;;;;;;;;;;;9.20;90.60;;;;;;5072497;28;19913;-31
2023/03/26 12:54:51;;;;;;;;;;;9.20;90.60;;;;;;5072311;28;19909;-27
2023/03/26 12:57:21;;;;;;;;;;;9.20;90.60;;;;;;5070972;28;19947;-29
2023/03/26 12:59:56;;;;;;;;;;;9.20;90.60;;;;;;5072390;28;19908;-31
2023/03/26 13:02:32;;;;;;;;;;;9.20;90.60;;;;;;5071957;28;19912;-30
2023/03/26 13:05:13;;;;;;;;;;;9.20;90.40;;;;;;5072240;28;19908;-30
2023/03/26 13:07:39;;;;;;;;;;;9.20;90.40;;;;;;5072669;28;19952;-31
2023/03/26 13:10:28;;;;;;;;;;;9.10;90.40;;;;;;5072463;28;20326;-29
2023/03/26 13:12:56;;;;;;;;;;;9.00;90.30;;;;;;5072459;28;19908;-28
2023/03/26 13:15:31;;;;;;;;;;;9.00;90.40;;;;;;5072402;28;19916;-30
2023/03/26 13:18:09;;;;;;;;;;;8.90;90.50;;;;;;5072335;28;19912;-31
2023/03/26 13:20:37;;;;;;;;;;;8.80;90.50;;;;;;5072482;28;20011;-30
2023/03/26 13:23:09;;;;;;;;;;;8.80;90.60;;;;;;5071718;28;20513;-30
2023/03/26 13:25:35;;;;;;;;;;;8.80;90.50;;;;;;5072462;28;20403;-33
2023/03/26 13:28:19;;;;;;;;;;;8.80;90.50;;;;;;5071922;28;19909;-36
2023/03/26 13:30:51;;;;;;;;;;;8.70;90.50;;;;;;5071995;28;19908;-32
2023/03/26 13:33:35;;;;;;;;;;;8.70;90.60;;;;;;5071948;28;19913;-29
2023/03/26 13:36:23;;;;;;;;;;;8.70;90.60;;;;;;5072062;28;19915;-29
2023/03/26 13:39:06;;;;;;;;;;;8.70;90.60;;;;;;5072160;28;20430;-28
2023/03/26 13:41:50;;;;;;;;;;;8.70;90.60;;;;;;5072392;28;19917;-31
2023/03/26 13:44:22;;;;;;;;;;;8.80;90.50;;;;;;5072261;28;19909;-29
2023/03/26 13:46:52;;;;;;;;;;;8.80;90.50;;;;;;5070769;28;19912;-32
2023/03/26 13:49:38;;;;;;;;;;;8.80;90.40;;;;;;5072511;28;19920;-29
2023/03/26 13:52:10;;;;;;;;;;;8.80;90.50;;;;;;5071759;28;19944;-32
2023/03/26 13:54:40;;;;;;;;;;;8.90;90.50;;;;;;5071758;28;20058;-31
2023/03/26 13:57:06;;;;;;;;;;;9.00;90.30;;;;;;5072028;28;19909;-29
2023/03/26 13:59:42;;;;;;;;;;;9.10;90.30;;;;;;5072021;28;19919;-34
2023/03/26 14:02:10;;;;;;;;;;;9.20;90.00;;;;;;5071685;28;19977;-34
2023/03/26 14:04:39;;;;;;;;;;;9.30;90.10;;;;;;5071691;28;20257;-29
2023/03/26 14:07:24;;;;;;;;;;;9.40;90.00;;;;;;5071540;28;19959;-30
2023/03/26 14:09:52;;;;;;;;;;;9.50;89.80;;;;;;5071619;28;19948;-31
2023/03/26 14:12:23;;;;;;;;;;;9.60;89.10;;;;;;5071392;28;19920;-31
2023/03/26 14:15:05;;;;;;;;;;;9.60;88.00;;;;;;5074040;28;20379;-30
2023/03/26 14:17:50;;;;;;;;;;;9.60;86.50;;;;;;5075431;28;20004;-28
2023/03/26 14:20:16;;;;;;;;;;;9.60;85.90;;;;;;5075201;28;20312;-29
2023/03/26 14:23:00;;;;;;;;;;;9.60;85.20;;;;;;5074978;28;19920;-31
2023/03/26 14:25:38;;;;;;;;;;;9.50;84.40;;;;;;5075128;28;19966;-29
2023/03/26 14:28:06;;;;;;;;;;;9.50;85.90;;;;;;5075232;28;19913;-33
2023/03/26 14:30:53;;;;;;;;;;;9.50;85.00;;;;;;5074997;28;20343;-28
2023/03/26 14:33:32;;;;;;;;;;;9.50;85.50;;;;;;5074711;28;20356;-30
2023/03/26 14:36:04;;;;;;;;;;;9.50;84.40;;;;;;5073406;28;20299;-29
2023/03/26 14:38:42;;;;;;;;;;;9.50;82.90;;;;;;5074714;28;19958;-30
2023/03/26 14:41:27;;;;;;;;;;;9.40;82.40;;;;;;5074749;28;19920;-27
2023/03/26 14:44:12;;;;;;;;;;;9.40;83.60;;;;;;5074489;28;19919;-27
2023/03/26 14:46:40;;;;;;;;;;;9.50;82.80;;;;;;5073163;28;19916;-29
2023/03/26 14:49:08;;;;;;;;;;;9.40;82.80;;;;;;5074784;28;19959;-29
2023/03/26 14:51:52;;;;;;;;;;;9.50;83.00;;;;;;5074761;28;19913;-27